Megan T Miller — WCW9003 — position and weather

sailwx.info

Track history (hours):
 
Tides and Currents Weather Stations Pressure Air Temp Water Temp Dewpoint Dewpoint Depression Visibility Wind Speed Wind Dir Waves Ship Positions

Megan T Miller

Owner: MILLER MARINE SERVICES INC, PORT JEFFERSON, NY. More information available from US FCC via Universal Licensing System and Coast Guard Vessel Documentation Center.

Last reported at 2016-Jun-27 12:17 UTC. Time now 2016-Jun-28 06:03 UTC.
Position N 41°14' W 071°28'.

Length 18 m; draft 3 m.

MMSI: 338104509.

Date/timePositionNaut miles runAvg speedWind from/ knotsBaromVisibWave heightAir tempDewpointWater temp
2016-Jun-27 12:17N 41°14' W 071°28'0 0.1
2016-Jun-27 09:33N 41°15' W 071°28'0 0.3
2016-Jun-27 08:32N 41°14' W 071°28'0 0.1
2016-Jun-27 05:33N 41°14' W 071°28'0 0.3
2016-Jun-27 04:33N 41°14' W 071°28'1 0.5
2016-Jun-27 03:31N 41°14' W 071°28'0 0.0
2016-Jun-26 13:20N 41°14' W 071°28'0 0.2
2016-Jun-26 12:32N 41°14' W 071°28'0 0.1
2016-Jun-26 03:32N 41°14' W 071°27'0 0.0
2016-Jun-26 02:33N 41°14' W 071°27'21 1.3
2016-Jun-25 10:30N 41°35' W 071°24'3 0.2
2016-Jun-24 22:34N 41°32' W 071°24'2 0.8
2016-Jun-24 20:32N 41°34' W 071°24'  
2016-Jun-22 07:32N 41°31' W 071°24'2 0.1
2016-Jun-20 23:33N 41°34' W 071°24'2 1.5
2016-Jun-20 22:26N 41°35' W 071°25'0 0.0
2016-Jun-20 15:13N 41°35' W 071°25'1 0.3
2016-Jun-20 10:33N 41°34' W 071°23'9 9.4
2016-Jun-20 09:33N 41°25' W 071°25'9 9.2
2016-Jun-20 08:33N 41°16' W 071°28'2 1.3
2016-Jun-20 07:07N 41°14' W 071°29'0 0.0
2016-Jun-20 06:33N 41°14' W 071°29'0 0.0
2016-Jun-20 05:24N 41°14' W 071°29'0 0.4
2016-Jun-20 04:34N 41°14' W 071°28'0 0.2
2016-Jun-20 03:32N 41°14' W 071°28'0 0.1
2016-Jun-20 01:05N 41°14' W 071°28'0 0.0
2016-Jun-19 13:30N 41°14' W 071°28'0 0.2
2016-Jun-19 12:33N 41°14' W 071°28'0 0.2
2016-Jun-19 11:33N 41°14' W 071°28'  
Track history (hours):
 
Tides and Currents Weather Stations Pressure Air Temp Water Temp Dewpoint Dewpoint Depression Visibility Wind Speed Wind Dir Waves Ship Positions

Megan T Miller

Owner: MILLER MARINE SERVICES INC, PORT JEFFERSON, NY. More information available from US FCC via Universal Licensing System and Coast Guard Vessel Documentation Center.

Last reported at 2016-Jun-27 12:17 UTC. Time now 2016-Jun-28 06:03 UTC.
Position N 41°14' W 071°28'.

Length 18 m; draft 3 m.

MMSI: 338104509.

Date/timePositionNaut miles runAvg speedWind from/ knotsBaromVisibWave heightAir tempDewpointWater temp
2016-Jun-27 12:17N 41°14' W 071°28'0 0.1
2016-Jun-27 09:33N 41°15' W 071°28'0 0.3
2016-Jun-27 08:32N 41°14' W 071°28'0 0.1
2016-Jun-27 05:33N 41°14' W 071°28'0 0.3
2016-Jun-27 04:33N 41°14' W 071°28'1 0.5
2016-Jun-27 03:31N 41°14' W 071°28'0 0.0
2016-Jun-26 13:20N 41°14' W 071°28'0 0.2
2016-Jun-26 12:32N 41°14' W 071°28'0 0.1
2016-Jun-26 03:32N 41°14' W 071°27'0 0.0
2016-Jun-26 02:33N 41°14' W 071°27'21 1.3
2016-Jun-25 10:30N 41°35' W 071°24'3 0.2
2016-Jun-24 22:34N 41°32' W 071°24'2 0.8
2016-Jun-24 20:32N 41°34' W 071°24'  
2016-Jun-22 07:32N 41°31' W 071°24'2 0.1
2016-Jun-20 23:33N 41°34' W 071°24'2 1.5
2016-Jun-20 22:26N 41°35' W 071°25'0 0.0
2016-Jun-20 15:13N 41°35' W 071°25'1 0.3
2016-Jun-20 10:33N 41°34' W 071°23'9 9.4
2016-Jun-20 09:33N 41°25' W 071°25'9 9.2
2016-Jun-20 08:33N 41°16' W 071°28'2 1.3
2016-Jun-20 07:07N 41°14' W 071°29'0 0.0
2016-Jun-20 06:33N 41°14' W 071°29'0 0.0
2016-Jun-20 05:24N 41°14' W 071°29'0 0.4
2016-Jun-20 04:34N 41°14' W 071°28'0 0.2
2016-Jun-20 03:32N 41°14' W 071°28'0 0.1
2016-Jun-20 01:05N 41°14' W 071°28'0 0.0
2016-Jun-19 13:30N 41°14' W 071°28'0 0.2
2016-Jun-19 12:33N 41°14' W 071°28'0 0.2
2016-Jun-19 11:33N 41°14' W 071°28'  

Dump ship's entire track history